Hovedside
METAR-TAF:

METAR-TAF

Lufthavner :

Stockholm-Skavsta, Sverige

Skavsta lufthavn

breddegrad: 58-47N, lengdegrad: 016-55E, høyde over havet: 43 m

Gjeldene værobservasjon

Denne rapporten ble laget for 37 minutter siden, klokken 09:50 UTC
Vind 17 kt fra Sørvest
Temperatur 17°C
Luftfuktighet 59%
Trykk 996 hPa
Sikt 10 km eller mer
Få skyer i en høyde av 3700 ft

METAR: ESKN 250950Z 23017KT 9999 FEW037 17/09 Q0996

Tid: 12:27 (10:27 UTC)


TAF: fraværende

Værobservasjoner og værvarsel for over 4000 flyplasser (METAR- og TAF-rapporter).

Tilgjengelige stasjoner er representert av de røde og gule prikkene på kartet.

Hold musepekeren over prikken for å se navnet på stasjonen.

Klikk så for å se værobservasjoner og -varsler.

For å forandre kartet kan du klikke på den grønne knappen med svart kryss for å zoome inn, på den grønne knappen med strek for å zoome ut, eller på de grønne pilene for å se tilstøtende kart.


METAR-TAF: